Latest Weather Observations for Latrobe Valley

IDV60801

Issued at 8:05 pm EDT Saturday 25 October 2014 (issued every 30 minutes, with the page automatically refreshed every 10 minutes)

About weather observations | Map of weather stations | Latest weather observations for VIC | Other Formats
Station Details ID: 085280 Name: LATROBE VALLEY AIRPORT Lat: -38.21 Lon: 146.47 Height: 55.7 m
Data from the previous 72 hours. | See also: Recent months at Latrobe Valley
Date/Time
EDT
Temp
°C
App
Temp
°C
Dew
Point
Rel
Hum
%
Delta-T
°C
Wind Press
QNH
hPa
Press
MSL
hPa
Rain
since 9 am
mm
Dir
 
Spd
km/h
Gust
km/h
Spd
kts
Gust
kts
25/08:00pm 15.0 13.0 11.4 79 1.9 ENE 13 17 7 9 1016.1 1016.1 0.0
25/07:30pm 15.5 13.5 11.5 77 2.2 ENE 13 17 7 9 1015.7 1015.7 0.0
25/07:00pm 16.1 13.9 12.1 77 2.2 NE 15 20 8 11 1015.1 1015.1 0.0
25/06:30pm 16.3 15.3 12.3 77 2.2 ENE 9 15 5 8 1015.2 1015.2 0.0
25/06:00pm 16.8 15.4 12.1 74 2.6 ENE 11 15 6 8 1015.1 1015.1 0.0
25/05:30pm 18.4 18.2 13.5 73 2.8 W 7 11 4 6 1014.6 1014.5 0.0
25/05:00pm 19.1 18.3 14.1 73 2.9 W 11 13 6 7 1014.3 1014.2 0.0
25/04:30pm 19.0 18.2 14.1 73 2.8 NW 11 17 6 9 1014.4 1014.3 0.0
25/04:00pm 19.6 18.9 14.2 71 3.1 WNW 11 13 6 7 1014.4 1014.3 0.0
25/03:30pm 19.9 18.9 13.4 66 3.7 WNW 11 15 6 8 1014.5 1014.4 0.0
25/03:00pm 19.6 18.9 13.1 66 3.7 WSW 9 13 5 7 1014.8 1014.8 0.0
25/02:30pm 19.7 19.4 13.2 66 3.7 W 7 19 4 10 1015.1 1015.1 0.0
25/02:00pm 19.5 18.8 13.2 67 3.6 WNW 9 17 5 9 1015.4 1015.4 0.0
25/01:30pm 18.3 17.8 12.5 69 3.2 WNW 7 15 4 8 1015.8 1015.8 0.0
25/01:00pm 17.9 16.6 12.4 70 3.1 W 11 17 6 9 1016.0 1016.0 0.0
25/12:30pm 17.2 15.8 12.1 72 2.8 SW 11 17 6 9 1016.2 1016.2 0.0
25/12:00pm 17.1 15.3 12.2 73 2.7 S 13 19 7 10 1016.5 1016.5 0.0
25/11:30am 16.6 14.8 12.2 75 2.4 SSW 13 17 7 9 1017.0 1017.0 0.0
25/11:00am 16.0 13.9 11.2 73 2.6 SW 13 20 7 11 1017.4 1017.4 0.0
25/10:30am 16.0 14.2 12.0 77 2.2 WSW 13 15 7 8 1017.6 1017.6 0.0
25/10:00am 15.5 12.8 11.7 78 2.1 SW 17 24 9 13 1017.6 1017.6 0.0
25/09:30am 15.3 12.1 11.9 80 1.8 SW 20 26 11 14 1017.5 1017.5 0.0
25/09:00am 15.0 11.9 11.6 80 1.8 SW 19 24 10 13 1017.6 1017.6 0.2
25/08:30am 14.8 12.4 11.4 80 1.8 WSW 15 20 8 11 1017.4 1017.4 0.2
25/08:00am 14.8 11.6 11.4 80 1.8 WSW 19 26 10 14 1017.2 1017.2 0.2
25/07:30am 14.3 11.8 12.3 88 1.1 WSW 17 22 9 12 1017.1 1017.1 0.2
25/07:00am 13.2 10.6 12.1 93 0.6 WSW 17 22 9 12 1016.7 1016.7 0.2
25/06:30am 13.1 10.5 12.0 93 0.6 W 17 20 9 11 1016.6 1016.6 0.2
25/06:00am 13.3 10.7 12.0 92 0.7 W 17 20 9 11 1016.4 1016.4 0.2
25/05:30am 13.3 10.7 11.9 91 0.8 W 17 20 9 11 1016.2 1016.2 0.2
25/05:00am 13.5 10.5 11.9 90 0.9 WSW 19 24 10 13 1016.0 1016.0 0.2
25/04:30am 13.5 10.5 12.1 91 0.8 SW 19 26 10 14 1015.7 1015.7 0.2
25/04:22am 13.4 10.4 12.1 92 0.7 SW 19 26 10 14 1015.8 1015.8 0.2
25/04:00am 13.7 10.7 12.4 92 0.7 SW 20 24 11 13 1015.7 1015.7 0.2
25/03:30am 14.1 11.0 12.3 89 1.0 WSW 20 28 11 15 1015.8 1015.8 0.2
25/03:00am 14.2 10.4 12.4 89 1.0 SW 24 30 13 16 1015.7 1015.7 0.2
25/02:30am 14.4 11.0 12.6 89 1.0 WSW 22 28 12 15 1015.7 1015.7 0.2
25/02:00am 14.5 11.5 12.7 89 1.0 W 20 30 11 16 1015.5 1015.5 0.2
25/01:30am 14.5 11.1 12.5 88 1.1 W 22 32 12 17 1015.5 1015.5 0.2
25/01:00am 14.7 11.8 12.4 86 1.3 WSW 19 24 10 13 1015.7 1015.7 0.2
25/12:30am 14.8 11.8 12.5 86 1.3 WSW 20 26 11 14 1015.6 1015.6 0.2
25/12:09am 15.0 10.8 12.3 84 1.5 WSW 26 33 14 18 1015.5 1015.5 0.2
25/12:00am 14.7 10.9 12.4 86 1.3 WSW 24 33 13 18 1015.6 1015.6 0.2
 
Date/Time
EDT
Temp
°C
App
Temp
°C
Dew
Point
Rel
Hum
%
Delta-T
°C
Wind Press
QNH
hPa
Press
MSL
hPa
Rain
since 9 am
mm
Dir
 
Spd
km/h
Gust
km/h
Spd
kts
Gust
kts
24/11:30pm 14.6 12.3 14.0 96 0.3 W 19 24 10 13 1015.5 1015.5 0.2
24/11:00pm 15.3 12.0 15.0 98 0.2 WSW 26 32 14 17 1015.0 1015.0 0.2
24/10:44pm 15.3 11.5 14.7 96 0.3 WSW 28 37 15 20 1014.8 1014.8 0.2
24/10:30pm 15.6 11.4 14.6 94 0.6 SW 30 39 16 21 1014.5 1014.4 0.2
24/10:00pm 16.3 12.7 14.1 87 1.3 SW 26 33 14 18 1014.1 1014.0 0.2
24/09:30pm 17.2 14.9 14.1 82 1.8 WSW 19 24 10 13 1013.6 1013.5 0.2
24/09:00pm 18.5 15.7 14.2 76 2.5 SW 22 30 12 16 1012.9 1012.9 0.2
24/08:30pm 19.4 17.5 14.2 72 3.0 SW 17 20 9 11 1012.2 1012.2 0.2
24/08:00pm 20.8 19.6 15.1 70 3.4 SW 15 20 8 11 1011.5 1011.5 0.2
24/07:30pm 22.4 21.3 16.4 69 3.7 WSW 17 19 9 10 1010.7 1010.7 0.2
24/07:00pm 25.0 25.0 15.3 55 5.9 SW 9 15 5 8 1010.2 1010.2 0.2
24/06:30pm 26.2 25.3 15.9 53 6.3 SW 15 19 8 10 1009.7 1009.7 0.2
24/06:00pm 27.0 25.8 16.0 51 6.8 WSW 17 22 9 12 1009.6 1009.6 0.2
24/05:30pm 27.9 26.7 17.1 51 6.8 WSW 19 24 10 13 1009.5 1009.5 0.2
24/05:00pm 28.4 27.3 17.3 51 7.0 WSW 19 24 10 13 1009.3 1009.3 0.2
24/04:30pm 28.6 27.5 17.8 52 6.9 WSW 20 30 11 16 1009.4 1009.4 0.2
24/04:00pm 28.4 27.1 19.1 57 6.0 WSW 24 32 13 17 1009.7 1009.7 0.2
24/03:30pm 27.5 26.1 17.9 55 6.1 W 22 35 12 19 1009.6 1009.6 0.2
24/03:00pm 27.8 26.9 18.2 56 6.1 W 20 30 11 16 1009.7 1009.7 0.2
24/02:30pm 27.9 28.3 19.1 58 5.7 WSW 15 22 8 12 1010.2 1010.2 0.2
24/02:00pm 26.5 27.3 19.1 64 4.8 WSW 13 19 7 10 1010.5 1010.5 0.2
24/01:30pm 25.7 26.6 19.3 67 4.1 W 13 17 7 9 1010.5 1010.5 0.2
24/01:00pm 24.4 25.6 17.4 65 4.4 W 7 11 4 6 1010.7 1010.7 0.2
24/12:30pm 23.3 24.4 16.6 66 4.1 NW 6 9 3 5 1010.8 1010.8 0.2
24/12:00pm 22.3 23.5 16.8 71 3.4 NE 6 9 3 5 1011.2 1011.2 0.2
24/11:30am 21.2 22.1 16.6 75 2.8 NE 7 13 4 7 1011.4 1011.4 0.2
24/11:09am 20.8 21.8 16.8 78 2.4 ESE 7 15 4 8 1011.7 1011.7 0.2
24/11:00am 20.1 20.4 16.1 78 2.4 E 9 15 5 8 1011.7 1011.7 0.0
24/10:30am 19.0 18.5 16.0 83 1.8 E 13 17 7 9 1011.9 1011.9 0.0
24/10:00am 18.5 18.2 16.5 88 1.2 ENE 13 19 7 10 1012.3 1012.3 0.0
24/09:30am 17.4 16.8 15.6 89 1.1 E 13 19 7 10 1012.5 1012.5 0.0
24/09:00am 17.0 16.0 15.7 92 0.8 E 15 20 8 11 1012.7 1012.7 0.0
24/08:30am 16.6 15.8 16.0 96 0.4 E 15 20 8 11 1013.0 1013.0 0.0
24/08:00am 16.4 15.2 16.1 98 0.2 E 17 26 9 14 1013.5 1013.4 0.0
24/07:30am 16.1 15.7 16.1 100 0.0 E 13 17 7 9 1013.6 1013.5 0.0
24/07:00am 15.9 15.8 15.9 100 0.0 ENE 11 17 6 9 1013.9 1013.8 0.0
24/06:30am 15.9 14.6 15.9 100 0.0 ENE 17 22 9 12 1013.8 1013.7 0.0
24/06:00am 15.9 15.0 15.9 100 0.0 E 15 26 8 14 1014.0 1013.9 0.0
24/05:30am 15.8 14.9 15.8 100 0.0 ENE 15 28 8 15 1014.0 1013.9 0.0
24/05:00am 15.8 14.5 15.8 100 0.0 ENE 17 28 9 15 1014.2 1014.1 0.0
24/04:30am 15.8 14.1 15.8 100 0.0 E 19 28 10 15 1014.4 1014.3 0.0
24/04:00am 15.8 14.1 15.8 100 0.0 ENE 19 28 10 15 1014.6 1014.5 0.0
24/03:30am 15.8 14.1 15.8 100 0.0 ENE 19 30 10 16 1015.1 1015.1 0.0
24/03:00am 15.8 13.9 15.8 100 0.0 ENE 20 28 11 15 1015.5 1015.5 0.0
24/02:30am 15.7 14.0 15.7 100 0.0 ENE 19 28 10 15 1015.9 1015.9 0.0
24/02:00am 15.6 13.6 15.6 100 0.0 E 20 30 11 16 1016.3 1016.3 0.0
24/01:30am 15.4 13.6 15.4 100 0.0 E 19 28 10 15 1016.9 1016.9 0.0
24/01:11am 15.3 13.4 15.3 100 0.0 E 19 28 10 15 1017.2 1017.2 0.0
24/01:00am 15.3 13.4 15.3 100 0.0 E 19 28 10 15 1017.3 1017.3 0.0
24/12:30am 15.3 13.8 15.3 100 0.0 E 17 28 9 15 1017.7 1017.7 0.0
24/12:11am 15.4 13.6 15.4 100 0.0 E 19 28 10 15 1017.9 1017.9 0.0
24/12:00am 15.3 13.8 15.3 100 0.0 E 17 28 9 15 1018.0 1018.0 0.0
 
Date/Time
EDT
Temp
°C
App
Temp
°C
Dew
Point
Rel
Hum
%
Delta-T
°C
Wind Press
QNH
hPa
Press
MSL
hPa
Rain
since 9 am
mm
Dir
 
Spd
km/h
Gust
km/h
Spd
kts
Gust
kts
23/11:30pm 15.3 13.8 15.3 100 0.0 E 17 32 9 17 1018.4 1018.4 0.0
23/11:00pm 15.2 13.1 15.2 100 0.0 E 20 32 11 17 1018.5 1018.5 0.0
23/10:30pm 15.2 13.0 15.0 99 0.1 E 20 32 11 17 1018.7 1018.7 0.0
23/10:00pm 15.0 12.4 14.8 99 0.1 E 22 33 12 18 1018.9 1018.9 0.0
23/09:30pm 15.1 13.0 14.8 98 0.2 E 19 30 10 16 1019.4 1019.4 0.0
23/09:00pm 15.0 12.7 14.7 98 0.2 E 20 33 11 18 1019.4 1019.4 0.0
23/08:30pm 15.0 12.8 14.5 97 0.3 E 19 30 10 16 1019.5 1019.5 0.0
23/08:00pm 15.1 12.9 14.5 96 0.3 E 19 35 10 19 1019.4 1019.4 0.0
23/07:30pm 15.0 12.5 14.2 95 0.5 E 20 32 11 17 1019.3 1019.3 0.0
23/07:00pm 15.3 12.4 14.0 92 0.7 E 22 37 12 20 1019.3 1019.3 0.0
23/06:30pm 15.6 11.9 13.8 89 1.0 E 26 39 14 21 1019.1 1019.1 0.0
23/06:00pm 15.8 12.4 13.6 87 1.2 E 24 39 13 21 1019.0 1019.0 0.0
23/05:30pm 15.8 12.8 13.6 87 1.2 E 22 35 12 19 1019.1 1019.1 0.0
23/05:00pm 16.2 13.3 13.9 86 1.3 E 22 37 12 20 1019.1 1019.1 0.0
23/04:30pm 16.3 12.9 13.8 85 1.4 E 24 37 13 20 1019.1 1019.1 0.0
23/04:00pm 16.2 12.9 13.9 86 1.3 E 24 33 13 18 1019.3 1019.3 0.0
23/03:30pm 16.5 13.3 14.2 86 1.3 E 24 35 13 19 1019.3 1019.3 0.0
23/03:00pm 17.2 14.0 14.3 83 1.7 E 24 39 13 21 1019.4 1019.4 0.0
23/02:30pm 17.2 14.8 14.5 84 1.6 E 20 35 11 19 1019.7 1019.7 0.0
23/02:00pm 16.9 14.2 14.5 86 1.4 E 22 35 12 19 1020.1 1020.1 0.0
23/01:30pm 16.7 14.3 14.5 87 1.3 E 20 28 11 15 1020.3 1020.3 0.0
23/01:00pm 16.6 15.0 15.0 90 0.9 E 17 26 9 14 1020.5 1020.5 0.0
23/12:30pm 17.0 15.4 15.0 88 1.2 E 17 26 9 14 1020.4 1020.4 0.0
23/12:00pm 17.0 15.7 14.8 87 1.3 E 15 22 8 12 1020.7 1020.7 0.0
23/11:30am 16.8 15.3 15.2 90 0.9 E 17 26 9 14 1021.0 1021.0 0.0
23/11:00am 16.6 15.5 14.2 86 1.4 ENE 13 19 7 10 1021.2 1021.2 0.0
23/10:30am 16.5 15.8 14.3 87 1.3 ENE 11 17 6 9 1021.2 1021.2 0.0
23/10:00am 16.3 16.2 13.4 83 1.6 E 6 9 3 5 1021.0 1021.0 0.0
23/09:30am 16.3 16.2 13.4 83 1.6 SSW 6 9 3 5 1020.7 1020.7 0.0
23/09:00am 16.5 15.8 14.3 87 1.3 WSW 11 15 6 8 1020.6 1020.6 0.0
23/08:30am 15.8 14.2 14.0 89 1.0 W 15 19 8 10 1020.5 1020.5 0.0
23/08:00am 15.6 13.7 14.3 92 0.7 WSW 17 20 9 11 1020.3 1020.3 0.0
23/07:30am 15.0 13.7 14.7 98 0.2 W 15 20 8 11 1019.9 1019.9 0.0
23/07:00am 14.7 14.1 14.7 100 0.0 W 11 15 6 8 1019.8 1019.8 0.0
23/06:30am 14.7 13.3 14.5 99 0.1 W 15 20 8 11 1019.5 1019.5 0.0
23/06:00am 14.7 12.9 14.5 99 0.1 W 17 20 9 11 1018.8 1018.8 0.0
23/05:30am 15.0 12.8 14.5 97 0.3 W 19 24 10 13 1018.1 1018.1 0.0
23/05:13am 14.7 12.9 14.4 98 0.2 W 17 26 9 14 1017.9 1017.9 0.0
23/05:00am 14.7 11.5 14.2 97 0.3 W 24 32 13 17 1017.5 1017.5 0.0
23/04:30am 15.1 11.6 14.5 96 0.3 SW 26 35 14 19 1016.9 1016.9 0.0
23/04:00am 15.6 13.2 14.5 93 0.6 WSW 20 24 11 13 1016.4 1016.4 0.0
23/03:30am 16.2 13.9 14.0 87 1.2 W 19 26 10 14 1016.1 1016.1 0.0
23/03:00am 16.5 14.9 15.0 91 0.9 N 17 28 9 15 1014.9 1014.9 0.0
23/02:46am 16.3 14.3 15.0 92 0.8 NE 19 20 10 11 1016.0 1016.0 0.0
23/02:30am 16.6 14.5 15.1 91 0.9 W 20 28 11 15 1018.0 1018.0 0.0
23/02:06am 16.5 11.9 15.2 92 0.8 WNW 33 39 18 21 1018.0 1018.0 0.0
23/02:00am 16.8 17.3 15.0 89 1.0 NW 6 19 3 10 1017.2 1017.2 0.0
23/01:30am 17.9 15.9 14.0 78 2.2 WSW 17 24 9 13 1018.8 1018.8 0.0
23/01:21am 18.2 13.7 13.7 75 2.6 W 30 48 16 26 1019.1 1019.1 0.0
23/01:16am 18.5 11.9 13.8 74 2.7 WSW 41 48 22 26 1019.3 1019.3 0.0
23/01:00am 17.1 15.7 14.6 85 1.4 W 15 22 8 12 1018.1 1018.1 0.0
23/12:30am 16.2 15.4 14.0 87 1.2 WSW 11 17 6 9 1017.2 1017.2 0.0
23/12:00am 18.1 17.7 14.0 77 2.3 S 9 11 5 6 1016.5 1016.5 0.0
 
Date/Time
EDT
Temp
°C
App
Temp
°C
Dew
Point
Rel
Hum
%
Delta-T
°C
Wind Press
QNH
hPa
Press
MSL
hPa
Rain
since 9 am
mm
Dir
 
Spd
km/h
Gust
km/h
Spd
kts
Gust
kts
22/11:30pm 18.0 18.6 14.3 79 2.1 S 4 9 2 5 1016.3 1016.3 0.0
22/11:00pm 17.2 16.9 14.5 84 1.6 NW 9 15 5 8 1016.8 1016.8 0.0
22/10:30pm 17.4 18.7 14.1 81 1.9 CALM 0 0 0 0 1016.3 1016.3 0.0
22/10:00pm 19.1 20.2 13.5 70 3.2 CALM 0 0 0 0 1016.6 1016.6 0.0
22/09:30pm 20.0 20.1 13.9 68 3.5 SE 6 9 3 5 1016.4 1016.4 0.0
22/09:00pm 19.9 19.5 14.0 69 3.4 NE 9 13 5 7 1016.0 1016.0 0.0
22/08:30pm 21.6 20.6 14.5 64 4.2 ENE 13 15 7 8 1015.7 1015.7 0.0

Other Formats:

Comma delimited format used in spreadsheet applications
http://www.bom.gov.au/fwo/IDV60801/IDV60801.94891.axf

JavaScript Object Notation format (JSON) in row-major order
http://www.bom.gov.au/fwo/IDV60801/IDV60801.94891.json